Time;durP1;ratioP1;P1;durP2;ratioP2;P2;SDS_P1;SDS_P2;PMS_P1;PMS_P2;Temp;Humidity;BMP_temperature;BMP_pressure;BME280_temperature;BME280_humidity;BME280_pressure;Samples;Min_cycle;Max_cycle;Signal;HPM_P1;HPM_P2
2021/08/16 00:08:55;;;;;;;711.00;661.25;;;20.60;99.90;;;;;;5080537;28;20287;-79
2021/08/16 00:14:12;;;;;;;688.15;639.42;;;20.50;99.90;;;;;;5075429;28;20217;-79
2021/08/16 00:22:08;;;;;;;714.13;664.22;;;20.30;99.90;;;;;;5082826;28;20205;-79
2021/08/16 00:32:41;;;;;;;706.08;656.50;;;20.20;99.90;;;;;;5083052;28;20209;-79
2021/08/16 00:35:08;;;;;;;702.30;652.67;;;20.20;99.90;;;;;;5076042;28;20283;-79
2021/08/16 00:37:35;;;;;;;697.20;647.97;;;20.20;99.90;;;;;;5075824;28;20213;-78
2021/08/16 00:48:09;;;;;;;732.55;681.95;;;19.40;99.90;;;;;;5076934;28;20232;-78
2021/08/16 00:56:14;;;;;;;745.28;693.95;;;19.10;99.90;;;;;;5070728;28;20303;-78
2021/08/16 00:58:44;;;;;;;752.22;700.40;;;19.00;99.90;;;;;;5075792;28;20208;-78
2021/08/16 01:01:10;;;;;;;767.92;715.53;;;19.00;99.90;;;;;;5076625;28;20227;-78
2021/08/16 01:03:37;;;;;;;761.45;709.33;;;18.90;99.90;;;;;;5072775;28;20241;-77
2021/08/16 01:16:51;;;;;;;10.50;4.38;;;18.80;99.90;;;;;;5076889;28;20200;-79
2021/08/16 01:30:07;;;;;;;658.92;612.35;;;18.70;99.90;;;;;;5072572;28;20239;-80
2021/08/16 01:40:42;;;;;;;638.97;594.20;;;18.60;99.90;;;;;;5071051;28;20213;-80
2021/08/16 01:56:35;;;;;;;666.33;619.80;;;18.50;99.90;;;;;;5073226;28;20248;-80
2021/08/16 02:09:54;;;;;;;688.08;640.13;;;18.50;99.90;;;;;;5072823;28;20200;-80
2021/08/16 02:17:48;;;;;;;657.60;611.75;;;18.50;99.90;;;;;;5078396;28;20204;-79
2021/08/16 02:20:15;;;;;;;681.83;633.80;;;18.50;99.90;;;;;;5075116;28;20205;-79
2021/08/16 02:22:42;;;;;;;665.85;619.22;;;18.40;99.90;;;;;;5079031;28;20201;-78
2021/08/16 02:30:42;;;;;;;661.72;615.65;;;18.40;99.90;;;;;;5073566;28;20232;-79
2021/08/16 02:35:57;;;;;;;672.92;625.47;;;18.40;99.90;;;;;;5072506;28;20228;-79
2021/08/16 02:49:09;;;;;;;666.65;619.58;;;18.30;99.90;;;;;;5079267;28;20200;-81
2021/08/16 02:51:36;;;;;;;693.80;645.08;;;18.30;99.90;;;;;;5080780;28;20200;-80
2021/08/16 02:54:03;;;;;;;691.58;643.17;;;18.30;99.90;;;;;;5079335;28;20208;-80
2021/08/16 03:04:37;;;;;;;702.53;652.60;;;18.20;99.90;;;;;;5078003;28;20241;-80
2021/08/16 03:07:05;;;;;;;711.65;662.33;;;18.20;99.90;;;;;;5078704;28;20213;-80
2021/08/16 03:09:32;;;;;;;734.33;684.05;;;18.20;99.90;;;;;;5084248;28;20256;-81
2021/08/16 03:17:37;;;;;;;720.70;670.65;;;18.10;99.90;;;;;;5077887;28;20181;-80
2021/08/16 03:20:06;;;;;;;765.42;713.55;;;18.10;99.90;;;;;;5078117;28;20201;-80
2021/08/16 03:35:58;;;;;;;722.33;672.55;;;18.20;99.90;;;;;;5077391;28;20215;-80
2021/08/16 03:38:25;;;;;;;719.30;669.47;;;18.30;99.90;;;;;;5083726;28;20673;-80
2021/08/16 03:40:52;;;;;;;730.33;679.85;;;18.30;99.90;;;;;;5083899;28;20202;-80
2021/08/16 03:49:16;;;;;;;745.55;694.42;;;18.20;99.90;;;;;;5081340;28;20189;-79
2021/08/16 04:02:28;;;;;;;729.67;678.38;;;18.20;99.90;;;;;;5078528;28;20196;-80
2021/08/16 04:04:55;;;;;;;742.97;692.08;;;18.20;99.90;;;;;;5079904;28;20236;-80
2021/08/16 04:07:23;;;;;;;759.53;707.58;;;18.20;99.90;;;;;;5075975;28;20235;-80
2021/08/16 04:15:18;;;;;;;755.92;704.58;;;18.10;99.90;;;;;;5077771;28;20205;-79
2021/08/16 04:17:45;;;;;;;771.83;718.33;;;18.20;99.90;;;;;;5072700;28;20287;-79
2021/08/16 04:20:13;;;;;;;755.33;702.83;;;18.20;99.90;;;;;;5076868;28;20196;-77
2021/08/16 04:22:49;;;;;;;765.35;713.33;;;18.10;99.90;;;;;;5077057;28;20209;-78
2021/08/16 04:36:01;;;;;;;741.35;690.58;;;18.00;99.90;;;;;;5070392;28;20261;-78
2021/08/16 04:54:36;;;;;;;770.13;718.00;;;17.80;99.90;;;;;;5072496;28;20293;-79
2021/08/16 04:57:03;;;;;;;772.83;720.22;;;17.80;99.90;;;;;;5083665;28;20197;-79
2021/08/16 04:59:30;;;;;;;719.00;668.92;;;17.90;99.90;;;;;;5086371;28;20197;-79
2021/08/16 05:10:03;;;;;;;770.85;718.38;;;17.80;99.90;;;;;;5069912;28;20201;-77
2021/08/16 05:12:30;;;;;;;738.70;687.00;;;17.90;99.90;;;;;;5068302;28;20205;-76
2021/08/16 05:14:56;;;;;;;724.55;673.42;;;17.90;99.90;;;;;;5069853;28;20228;-76
2021/08/16 05:20:07;;;;;;;754.28;702.90;;;17.90;99.90;;;;;;5067147;28;20287;-76
2021/08/16 05:22:35;;;;;;;753.03;701.10;;;17.80;99.90;;;;;;5068860;28;20205;-76
2021/08/16 05:25:04;;;;;;;726.08;675.83;;;17.80;99.90;;;;;;5066652;28;20201;-77
2021/08/16 05:27:31;;;;;;;728.15;677.50;;;17.70;99.90;;;;;;5070189;28;20255;-76
2021/08/16 05:29:58;;;;;;;736.15;684.97;;;17.70;99.90;;;;;;5076097;28;20231;-76
2021/08/16 05:32:25;;;;;;;736.55;684.78;;;17.70;99.90;;;;;;5074071;28;20209;-77
2021/08/16 05:34:53;;;;;;;746.17;694.70;;;17.70;99.90;;;;;;5071973;28;20247;-76
2021/08/16 05:37:22;;;;;;;712.88;663.28;;;17.70;99.90;;;;;;5073310;28;20202;-77
2021/08/16 05:39:49;;;;;;;735.30;684.08;;;17.70;99.90;;;;;;5069375;28;20209;-77
2021/08/16 05:42:17;;;;;;;703.63;653.30;;;17.70;99.90;;;;;;5067111;28;20227;-76
2021/08/16 05:44:44;;;;;;;708.28;658.70;;;17.70;99.90;;;;;;5069935;28;20208;-77
2021/08/16 05:47:11;;;;;;;716.10;666.15;;;17.80;99.90;;;;;;5071335;28;20217;-76
2021/08/16 05:49:39;;;;;;;712.78;663.33;;;17.80;99.90;;;;;;5065345;28;20201;-76
2021/08/16 05:52:07;;;;;;;686.97;638.33;;;17.80;99.90;;;;;;5065932;28;20727;-76
2021/08/16 05:54:34;;;;;;;683.63;634.28;;;17.80;99.90;;;;;;5066572;28;20261;-77
2021/08/16 05:57:01;;;;;;;716.97;666.58;;;17.90;99.90;;;;;;5066307;28;20225;-77
2021/08/16 05:59:29;;;;;;;728.20;676.95;;;17.80;99.90;;;;;;5065869;28;20231;-77
2021/08/16 06:01:56;;;;;;;707.05;658.05;;;17.80;99.90;;;;;;5066167;28;20235;-76
2021/08/16 06:04:23;;;;;;;704.28;654.88;;;17.80;99.90;;;;;;5068345;28;20229;-77
2021/08/16 06:06:51;;;;;;;694.35;645.95;;;17.80;99.90;;;;;;5067040;28;20201;-78
2021/08/16 06:09:18;;;;;;;694.42;645.03;;;17.80;99.90;;;;;;5078677;28;20226;-79
2021/08/16 06:14:34;;;;;;;728.78;678.80;;;17.90;99.90;;;;;;5080536;28;20197;-79
2021/08/16 06:17:18;;;;;;;703.25;653.88;;;17.80;99.90;;;;;;5073090;28;20204;-78
2021/08/16 06:19:52;;;;;;;736.78;686.28;;;17.90;99.90;;;;;;5077270;28;20551;-78
2021/08/16 06:22:46;;;;;;;707.65;658.08;;;17.90;99.90;;;;;;5080933;28;20224;-79
2021/08/16 06:25:14;;;;;;;689.03;640.17;;;18.00;99.90;;;;;;5074552;28;20611;-79
2021/08/16 06:36:19;;;;;;;721.03;670.30;;;18.10;99.90;;;;;;5070656;28;20300;-78
2021/08/16 06:38:54;;;;;;;706.78;657.63;;;18.10;99.90;;;;;;5075225;28;20196;-78
2021/08/16 06:41:29;;;;;;;717.63;667.83;;;18.10;99.90;;;;;;5079064;28;20214;-77
2021/08/16 06:43:56;;;;;;;712.50;662.95;;;18.10;99.90;;;;;;5089864;28;20208;-78
2021/08/16 06:46:29;;;;;;;690.97;642.92;;;18.20;99.90;;;;;;5076391;28;20185;-78
2021/08/16 06:48:58;;;;;;;715.17;665.20;;;18.30;99.90;;;;;;5083315;28;20228;-78
2021/08/16 06:51:25;;;;;;;713.63;663.55;;;18.40;99.90;;;;;;5073022;28;20288;-78
2021/08/16 06:53:52;;;;;;;699.13;650.03;;;18.50;99.90;;;;;;5073130;28;20225;-77
2021/08/16 07:04:38;;;;;;;733.60;682.90;;;18.70;99.90;;;;;;5085478;28;20540;-78
2021/08/16 07:07:06;;;;;;;683.75;635.20;;;18.90;99.90;;;;;;5073230;28;20205;-78
2021/08/16 07:09:32;;;;;;;698.22;648.95;;;19.20;99.90;;;;;;5073681;28;20227;-78
2021/08/16 07:11:59;;;;;;;668.63;621.13;;;19.40;99.90;;;;;;5068866;28;20201;-76
2021/08/16 07:14:26;;;;;;;696.13;647.17;;;19.50;99.90;;;;;;5075268;28;20197;-77
2021/08/16 07:16:53;;;;;;;692.30;643.72;;;19.40;99.90;;;;;;5072614;28;20197;-77
2021/08/16 07:19:21;;;;;;;705.78;655.83;;;19.40;99.90;;;;;;5077444;28;20224;-78
2021/08/16 07:21:49;;;;;;;711.63;661.60;;;19.30;99.90;;;;;;5070376;28;20208;-77
2021/08/16 07:24:17;;;;;;;676.50;628.45;;;19.40;99.90;;;;;;5070416;28;20261;-78
2021/08/16 07:26:44;;;;;;;685.88;637.80;;;19.40;99.90;;;;;;5075998;28;20201;-77
2021/08/16 07:29:11;;;;;;;658.15;611.20;;;19.40;99.90;;;;;;5077029;28;20225;-77
2021/08/16 07:31:38;;;;;;;672.97;625.42;;;19.30;99.90;;;;;;5070044;28;20205;-76
2021/08/16 07:34:05;;;;;;;658.20;611.60;;;19.30;99.90;;;;;;5075906;28;20194;-77
2021/08/16 07:36:32;;;;;;;658.42;611.65;;;19.30;99.90;;;;;;5072777;28;20228;-77
2021/08/16 07:39:00;;;;;;;684.80;636.30;;;19.40;99.90;;;;;;5068851;28;20231;-77
2021/08/16 07:41:27;;;;;;;692.25;643.53;;;19.40;99.90;;;;;;5069041;28;20197;-77
2021/08/16 07:43:54;;;;;;;725.20;675.00;;;19.40;99.90;;;;;;5073815;28;20231;-77
2021/08/16 07:46:21;;;;;;;737.03;686.13;;;19.40;99.90;;;;;;5071720;28;20223;-78
2021/08/16 07:48:48;;;;;;;713.42;663.10;;;19.40;99.90;;;;;;5081518;28;20237;-79
2021/08/16 07:51:16;;;;;;;616.25;569.33;;;19.40;99.90;;;;;;5077592;28;20490;-78
2021/08/16 07:53:48;;;;;;;662.75;615.50;;;19.40;99.90;;;;;;5079686;28;20201;-78
2021/08/16 07:56:17;;;;;;;674.17;625.60;;;19.30;99.90;;;;;;5070867;28;20688;-78
2021/08/16 07:58:44;;;;;;;699.67;650.17;;;19.30;99.90;;;;;;5071171;28;20231;-78
2021/08/16 08:01:11;;;;;;;688.60;640.10;;;19.30;99.90;;;;;;5074860;28;20259;-77
2021/08/16 08:03:38;;;;;;;697.90;648.65;;;19.20;99.90;;;;;;5079823;28;20229;-78
2021/08/16 08:06:09;;;;;;;709.60;659.60;;;19.10;99.90;;;;;;5076061;28;20718;-77
2021/08/16 08:08:36;;;;;;;709.53;659.50;;;19.10;99.90;;;;;;5077141;28;20350;-78
2021/08/16 08:11:12;;;;;;;724.85;674.47;;;19.00;99.90;;;;;;5074404;28;20197;-78
2021/08/16 08:13:55;;;;;;;707.85;658.33;;;19.00;99.90;;;;;;5072693;28;20197;-78
2021/08/16 08:16:22;;;;;;;733.60;682.97;;;19.10;99.90;;;;;;5079785;28;20204;-77
2021/08/16 08:18:49;;;;;;;705.33;655.85;;;19.20;99.90;;;;;;5068360;28;20275;-77
2021/08/16 08:21:17;;;;;;;715.80;665.92;;;19.20;99.90;;;;;;5076457;28;20208;-77
2021/08/16 08:23:44;;;;;;;725.28;673.97;;;19.20;99.90;;;;;;5078146;28;20632;-78
2021/08/16 08:26:12;;;;;;;731.78;680.33;;;19.30;99.90;;;;;;5073489;28;20205;-77
2021/08/16 08:28:39;;;;;;;725.97;675.42;;;19.30;99.90;;;;;;5073242;28;20229;-77
2021/08/16 08:31:08;;;;;;;697.38;647.92;;;19.40;99.90;;;;;;5069089;28;20213;-79
2021/08/16 08:33:37;;;;;;;635.35;589.55;;;19.60;99.90;;;;;;5070481;28;20213;-76
2021/08/16 08:36:04;;;;;;;672.65;624.97;;;19.60;99.90;;;;;;5077535;28;20196;-77
2021/08/16 08:38:31;;;;;;;681.28;632.40;;;19.50;99.90;;;;;;5069460;28;20205;-77
2021/08/16 08:41:00;;;;;;;676.63;628.65;;;19.50;99.90;;;;;;5078096;28;20767;-78
2021/08/16 08:43:28;;;;;;;681.88;632.95;;;19.60;99.90;;;;;;5081685;28;20202;-77
2021/08/16 08:45:56;;;;;;;693.65;644.55;;;19.70;99.90;;;;;;5073290;28;20197;-77
2021/08/16 08:48:24;;;;;;;678.03;629.75;;;19.60;99.90;;;;;;5069951;28;22383;-77
2021/08/16 08:51:00;;;;;;;701.00;651.45;;;19.60;99.90;;;;;;5072863;28;20205;-77
2021/08/16 08:53:28;;;;;;;707.80;658.15;;;19.60;99.90;;;;;;5080206;28;20192;-77
2021/08/16 08:55:55;;;;;;;679.20;630.83;;;19.60;99.90;;;;;;5068303;28;20193;-77
2021/08/16 08:58:22;;;;;;;661.67;615.03;;;19.60;99.90;;;;;;5078955;28;20219;-77
2021/08/16 09:00:49;;;;;;;682.85;634.45;;;19.60;99.90;;;;;;5072360;28;20228;-78
2021/08/16 09:03:16;;;;;;;697.95;648.97;;;19.50;99.90;;;;;;5071388;28;20229;-78
2021/08/16 09:05:53;;;;;;;697.95;648.80;;;19.40;99.90;;;;;;5073798;28;20258;-77
2021/08/16 09:08:27;;;;;;;706.75;657.17;;;19.40;99.90;;;;;;5067539;28;20252;-77
2021/08/16 09:11:09;;;;;;;668.78;621.80;;;19.30;99.90;;;;;;5066944;28;20200;-76
2021/08/16 09:13:36;;;;;;;680.38;632.40;;;19.40;99.90;;;;;;5066439;28;20209;-76
2021/08/16 09:16:10;;;;;;;711.83;661.53;;;19.40;99.90;;;;;;5071962;28;20205;-76
2021/08/16 09:18:37;;;;;;;686.70;638.20;;;19.40;99.90;;;;;;5066141;28;20213;-76
2021/08/16 09:21:06;;;;;;;694.33;645.45;;;19.50;99.90;;;;;;5066260;28;20224;-78
2021/08/16 09:23:46;;;;;;;657.78;611.17;;;19.50;99.90;;;;;;5070546;28;20193;-78
2021/08/16 09:26:17;;;;;;;720.47;670.15;;;19.50;99.90;;;;;;5073239;28;20201;-78
2021/08/16 09:28:44;;;;;;;675.83;627.58;;;19.60;99.90;;;;;;5071092;28;20228;-78
2021/08/16 09:31:13;;;;;;;715.78;665.00;;;19.70;99.90;;;;;;5070604;28;20707;-78
2021/08/16 09:33:50;;;;;;;722.92;672.47;;;19.70;99.90;;;;;;5082105;28;20204;-78
2021/08/16 09:36:19;;;;;;;705.20;655.53;;;19.70;99.90;;;;;;5070846;28;20197;-78
2021/08/16 09:38:46;;;;;;;705.05;654.70;;;19.70;99.90;;;;;;5082422;28;20205;-78
2021/08/16 09:41:21;;;;;;;691.70;642.60;;;19.70;99.90;;;;;;5074111;28;20201;-78
2021/08/16 09:43:48;;;;;;;664.30;617.17;;;19.80;99.90;;;;;;5071517;28;20276;-78
2021/08/16 09:46:16;;;;;;;700.42;650.92;;;19.80;99.90;;;;;;5071487;28;20209;-78
2021/08/16 09:48:44;;;;;;;685.25;636.63;;;19.80;99.90;;;;;;5080428;28;20225;-78
2021/08/16 09:51:22;;;;;;;658.38;612.03;;;19.70;99.90;;;;;;5075035;28;20232;-77
2021/08/16 09:53:50;;;;;;;712.13;661.90;;;19.60;99.90;;;;;;5066170;28;20212;-75
2021/08/16 09:56:18;;;;;;;671.47;623.85;;;19.60;99.90;;;;;;5066764;28;20239;-75
2021/08/16 09:58:45;;;;;;;692.22;643.38;;;19.50;99.90;;;;;;5069988;28;20284;-75
2021/08/16 10:01:13;;;;;;;686.60;637.97;;;19.40;99.90;;;;;;5065998;28;20211;-74
2021/08/16 10:08:23;;;;;;;808.00;753.67;;;19.20;99.90;;;;;;5081195;28;20209;-74
2021/08/16 10:10:53;;;;;;;795.80;742.05;;;19.10;99.90;;;;;;5082351;28;20230;-74
2021/08/16 10:13:21;;;;;;;801.85;747.97;;;18.90;99.90;;;;;;5083274;28;20226;-74
2021/08/16 10:15:53;;;;;;;786.03;732.38;;;18.70;99.90;;;;;;5082781;28;20232;-74
2021/08/16 10:18:22;;;;;;;808.13;753.47;;;18.60;99.90;;;;;;5082642;28;20577;-74
2021/08/16 10:20:50;;;;;;;797.53;743.17;;;18.50;99.90;;;;;;5083481;28;20648;-74
2021/08/16 10:23:23;;;;;;;786.67;732.35;;;18.40;99.90;;;;;;5087003;28;20220;-74
2021/08/16 10:25:51;;;;;;;826.38;771.05;;;18.30;99.90;;;;;;5093746;28;20226;-74
2021/08/16 10:28:26;;;;;;;806.60;752.20;;;18.40;99.90;;;;;;5082432;28;20201;-74
2021/08/16 10:30:53;;;;;;;783.85;729.55;;;18.40;99.90;;;;;;5082321;28;20262;-75
2021/08/16 10:33:21;;;;;;;811.20;756.70;;;18.30;99.90;;;;;;5089809;28;20257;-77
2021/08/16 10:38:30;;;;;;;786.95;732.70;;;18.20;99.90;;;;;;5088111;28;20196;-76
2021/08/16 10:40:57;;;;;;;809.50;754.63;;;17.90;99.90;;;;;;5087086;28;20207;-75
2021/08/16 10:43:34;;;;;;;784.70;729.80;;;17.70;99.90;;;;;;5081753;28;20228;-76
2021/08/16 10:46:01;;;;;;;813.63;758.28;;;17.60;99.90;;;;;;5087569;28;20200;-76
2021/08/16 10:48:30;;;;;;;818.83;763.25;;;17.60;99.90;;;;;;5085316;28;20272;-76
2021/08/16 10:51:08;;;;;;;782.35;726.70;;;17.50;99.90;;;;;;5084797;28;20201;-76
2021/08/16 10:53:47;;;;;;;787.08;731.22;;;17.60;99.90;;;;;;5082277;28;20197;-76
2021/08/16 10:56:17;;;;;;;804.17;748.05;;;17.60;99.90;;;;;;5084808;28;20200;-76
2021/08/16 10:58:45;;;;;;;787.63;732.30;;;17.80;99.90;;;;;;5091979;28;20200;-76
2021/08/16 11:01:14;;;;;;;826.15;769.85;;;17.90;99.90;;;;;;5085854;28;20637;-76
2021/08/16 11:09:23;;;;;;;825.50;769.35;;;18.10;99.90;;;;;;5081674;28;20209;-76
2021/08/16 11:11:57;;;;;;;823.15;767.40;;;18.30;99.90;;;;;;5080726;28;20292;-77
2021/08/16 11:14:28;;;;;;;816.97;761.38;;;18.30;99.90;;;;;;5084293;28;20210;-77
2021/08/16 11:19:44;;;;;;;809.10;753.63;;;18.40;99.90;;;;;;5070719;28;20197;-77
2021/08/16 11:22:12;;;;;;;784.65;728.53;;;18.40;99.90;;;;;;5067645;28;20201;-77
2021/08/16 11:24:46;;;;;;;827.45;770.40;;;18.40;99.90;;;;;;5070738;28;20228;-77
2021/08/16 11:27:20;;;;;;;829.53;772.30;;;18.30;99.90;;;;;;5069455;28;20281;-77
2021/08/16 11:29:57;;;;;;;791.70;736.05;;;18.50;99.90;;;;;;5073076;28;20228;-77
2021/08/16 11:32:25;;;;;;;814.35;756.90;;;18.40;99.90;;;;;;5073444;28;20231;-76
2021/08/16 11:34:53;;;;;;;781.28;726.53;;;18.50;99.90;;;;;;5067759;28;20206;-76
2021/08/16 11:37:30;;;;;;;835.55;778.30;;;18.40;99.90;;;;;;5078133;28;20264;-77
2021/08/16 11:40:01;;;;;;;825.13;768.53;;;18.40;99.90;;;;;;5070911;28;20196;-77
2021/08/16 11:42:28;;;;;;;787.97;730.92;;;18.50;99.90;;;;;;5074742;28;20204;-76
2021/08/16 11:44:59;;;;;;;823.25;767.00;;;18.60;99.90;;;;;;5079001;28;20258;-74
2021/08/16 11:47:31;;;;;;;822.38;766.40;;;18.60;99.90;;;;;;5070054;28;20227;-75
2021/08/16 11:50:00;;;;;;;795.65;739.90;;;18.50;99.90;;;;;;5070542;28;20201;-77
2021/08/16 11:52:27;;;;;;;817.75;761.17;;;18.40;99.90;;;;;;5075206;28;20548;-76
2021/08/16 11:54:54;;;;;;;830.85;774.53;;;18.40;99.90;;;;;;5071741;28;20235;-75
2021/08/16 11:57:23;;;;;;;825.38;767.20;;;18.40;99.90;;;;;;5071128;28;20228;-75
2021/08/16 11:59:52;;;;;;;816.65;759.90;;;18.20;99.90;;;;;;5067506;28;20269;-76
2021/08/16 12:02:22;;;;;;;785.28;730.45;;;18.10;99.90;;;;;;5066362;28;20207;-76
2021/08/16 12:04:51;;;;;;;847.35;789.47;;;18.10;99.90;;;;;;5065983;28;20237;-76
2021/08/16 12:10:16;;;;;;;804.60;747.45;;;18.20;99.90;;;;;;5067066;28;20208;-76
2021/08/16 12:12:44;;;;;;;832.63;775.60;;;18.20;99.90;;;;;;5067123;28;20292;-76
2021/08/16 12:15:15;;;;;;;836.95;779.30;;;18.30;99.90;;;;;;5071659;28;20204;-76
2021/08/16 12:17:42;;;;;;;808.30;751.95;;;18.30;99.90;;;;;;5069298;28;20201;-76
2021/08/16 12:22:54;;;;;;;798.30;742.03;;;18.30;99.90;;;;;;5070710;28;20205;-76
2021/08/16 12:25:22;;;;;;;847.05;787.40;;;18.20;99.90;;;;;;5071115;28;20225;-76
2021/08/16 12:27:57;;;;;;;811.88;754.78;;;18.10;99.90;;;;;;5069153;28;20270;-75
2021/08/16 12:30:24;;;;;;;841.60;783.60;;;18.00;99.90;;;;;;5066788;28;20209;-75
2021/08/16 12:32:51;;;;;;;799.70;742.75;;;18.10;99.90;;;;;;5070138;28;20193;-77
2021/08/16 12:35:20;;;;;;;824.50;767.47;;;18.00;99.90;;;;;;5066161;28;20201;-77
2021/08/16 12:37:49;;;;;;;825.90;768.05;;;18.00;99.90;;;;;;5072437;28;20227;-75
2021/08/16 12:40:20;;;;;;;848.38;789.67;;;18.00;99.90;;;;;;5073089;28;20328;-75
2021/08/16 12:42:57;;;;;;;817.20;759.65;;;18.00;99.90;;;;;;5071184;28;20264;-76
2021/08/16 12:45:24;;;;;;;839.70;780.88;;;18.00;99.90;;;;;;5073127;28;20238;-77
2021/08/16 12:47:59;;;;;;;834.25;776.08;;;18.00;99.90;;;;;;5066473;28;20205;-75
2021/08/16 12:50:26;;;;;;;826.22;768.40;;;18.10;99.90;;;;;;5066773;28;20201;-75
2021/08/16 12:52:53;;;;;;;851.28;792.00;;;18.20;99.90;;;;;;5066715;28;20223;-75
2021/08/16 12:55:20;;;;;;;840.03;782.28;;;18.20;99.90;;;;;;5073827;28;20196;-76
2021/08/16 12:57:47;;;;;;;823.00;764.67;;;18.20;99.90;;;;;;5066078;28;20623;-76
2021/08/16 13:00:16;;;;;;;827.05;769.35;;;18.20;99.90;;;;;;5068938;28;20227;-76
2021/08/16 13:02:44;;;;;;;810.17;753.60;;;18.30;99.90;;;;;;5069546;28;20205;-76
2021/08/16 13:05:11;;;;;;;847.50;789.50;;;18.30;99.90;;;;;;5064981;28;20228;-76
2021/08/16 13:07:38;;;;;;;840.25;782.28;;;18.30;99.90;;;;;;5072832;28;20250;-75
2021/08/16 13:10:07;;;;;;;799.10;742.50;;;18.30;99.90;;;;;;5068244;28;20263;-76
2021/08/16 13:12:35;;;;;;;844.63;785.88;;;18.30;99.90;;;;;;5068400;28;20343;-76
2021/08/16 13:15:02;;;;;;;841.92;783.38;;;18.30;99.90;;;;;;5065215;28;20201;-76
2021/08/16 13:22:52;;;;;;;828.67;771.25;;;18.40;99.90;;;;;;5070697;28;20204;-76
2021/08/16 13:25:19;;;;;;;828.70;771.72;;;18.40;99.90;;;;;;5067907;28;20236;-76
2021/08/16 13:27:46;;;;;;;813.13;755.95;;;18.30;99.90;;;;;;5065477;28;20205;-75
2021/08/16 13:30:14;;;;;;;821.35;762.70;;;18.40;99.90;;;;;;5069613;28;20199;-75
2021/08/16 13:32:43;;;;;;;849.50;791.17;;;18.30;99.90;;;;;;5065319;28;20621;-75
2021/08/16 13:35:10;;;;;;;783.38;727.58;;;18.40;99.90;;;;;;5075122;28;20209;-75
2021/08/16 13:37:37;;;;;;;858.80;800.30;;;18.40;99.90;;;;;;5069729;28;20196;-76
2021/08/16 13:40:05;;;;;;;813.35;755.20;;;18.60;99.90;;;;;;5067091;28;20263;-75
2021/08/16 13:42:35;;;;;;;855.20;796.80;;;18.70;99.90;;;;;;5065289;28;20603;-76
2021/08/16 13:45:02;;;;;;;822.95;764.22;;;18.60;99.90;;;;;;5064784;28;20255;-76
2021/08/16 13:47:29;;;;;;;849.58;791.33;;;18.50;99.90;;;;;;5065221;28;20251;-76
2021/08/16 13:49:57;;;;;;;849.97;790.63;;;18.40;99.90;;;;;;5071351;28;20196;-74
2021/08/16 13:52:24;;;;;;;834.92;776.70;;;18.30;99.90;;;;;;5065931;28;20625;-75
2021/08/16 13:54:51;;;;;;;834.70;775.60;;;18.30;99.90;;;;;;5069575;28;20205;-77
2021/08/16 13:57:18;;;;;;;840.65;780.60;;;18.40;99.90;;;;;;5067350;28;20274;-76
2021/08/16 13:59:45;;;;;;;860.15;800.67;;;18.50;99.90;;;;;;5071894;28;20572;-77
2021/08/16 14:02:12;;;;;;;809.95;751.15;;;18.50;99.90;;;;;;5064458;28;20201;-76
2021/08/16 14:04:39;;;;;;;841.83;782.28;;;18.50;99.90;;;;;;5069451;28;20237;-76
2021/08/16 14:07:08;;;;;;;828.72;770.78;;;18.50;99.90;;;;;;5070065;28;20266;-76
2021/08/16 14:09:35;;;;;;;860.72;800.22;;;18.40;99.90;;;;;;5070836;28;20197;-77
2021/08/16 14:12:04;;;;;;;804.88;746.13;;;18.10;99.90;;;;;;5075873;28;20231;-76
2021/08/16 14:14:32;;;;;;;813.05;754.63;;;17.80;99.90;;;;;;5076711;28;20201;-76
2021/08/16 14:16:59;;;;;;;799.00;740.92;;;17.60;99.90;;;;;;5067820;28;20203;-76
2021/08/16 14:19:26;;;;;;;805.90;746.78;;;17.40;99.90;;;;;;5072180;28;20197;-76
2021/08/16 14:21:53;;;;;;;790.20;730.17;;;17.20;99.90;;;;;;5068021;28;20334;-76
2021/08/16 14:24:23;;;;;;;774.25;714.95;;;17.00;99.90;;;;;;5070461;28;20225;-77
2021/08/16 14:26:50;;;;;;;751.58;692.00;;;17.00;99.90;;;;;;5072128;28;20205;-76
2021/08/16 14:29:18;;;;;;;787.03;728.03;;;17.00;99.90;;;;;;5064743;28;20193;-76
2021/08/16 14:31:45;;;;;;;775.58;716.03;;;17.00;99.90;;;;;;5064090;28;20201;-76
2021/08/16 14:34:12;;;;;;;787.83;728.65;;;17.10;99.90;;;;;;5069098;28;20209;-76
2021/08/16 14:36:38;;;;;;;761.10;700.75;;;17.20;99.90;;;;;;5064987;28;20205;-76
2021/08/16 14:39:05;;;;;;;787.35;726.80;;;17.30;99.90;;;;;;5065872;28;21115;-76
2021/08/16 14:41:34;;;;;;;811.78;751.70;;;17.30;99.90;;;;;;5065244;28;20193;-76
2021/08/16 14:44:02;;;;;;;779.38;719.88;;;17.30;99.90;;;;;;5065333;28;20236;-76
2021/08/16 14:46:29;;;;;;;748.50;689.83;;;17.30;99.90;;;;;;5075233;28;20197;-76
2021/08/16 14:48:56;;;;;;;757.03;698.03;;;17.40;99.90;;;;;;5072995;28;20223;-76
2021/08/16 14:51:24;;;;;;;791.08;731.95;;;17.40;99.90;;;;;;5071926;28;20204;-76
2021/08/16 14:53:51;;;;;;;761.30;702.97;;;17.40;99.90;;;;;;5072446;28;20254;-76
2021/08/16 14:56:18;;;;;;;750.72;693.05;;;17.30;99.90;;;;;;5068455;28;20214;-76
2021/08/16 15:04:08;;;;;;;777.30;718.55;;;17.30;99.90;;;;;;5074787;28;20324;-76
2021/08/16 15:06:36;;;;;;;744.13;686.15;;;17.30;99.90;;;;;;5076815;28;20235;-76
2021/08/16 15:09:03;;;;;;;789.42;731.08;;;17.30;99.90;;;;;;5072268;28;20227;-76
2021/08/16 15:11:30;;;;;;;809.72;752.13;;;17.30;99.90;;;;;;5068853;28;20197;-76
2021/08/16 15:13:59;;;;;;;812.22;755.95;;;17.40;99.90;;;;;;5073719;28;20201;-76
2021/08/16 15:16:26;;;;;;;805.10;747.80;;;17.50;99.90;;;;;;5068341;28;20231;-76
2021/08/16 15:18:53;;;;;;;809.88;751.88;;;17.60;99.90;;;;;;5079428;28;20204;-76
2021/08/16 15:21:20;;;;;;;835.40;776.60;;;17.60;99.90;;;;;;5068224;28;20197;-76
2021/08/16 15:23:47;;;;;;;824.35;766.00;;;17.50;99.90;;;;;;5067623;28;20205;-76
2021/08/16 15:26:14;;;;;;;826.88;768.75;;;17.60;99.90;;;;;;5067965;28;20225;-76
2021/08/16 15:28:43;;;;;;;799.80;741.45;;;17.60;99.90;;;;;;5071325;28;20227;-76
2021/08/16 15:31:11;;;;;;;794.72;737.80;;;17.50;99.90;;;;;;5068250;28;20563;-76
2021/08/16 15:33:38;;;;;;;833.13;774.70;;;17.40;99.90;;;;;;5075325;28;20208;-76
2021/08/16 15:36:07;;;;;;;767.97;711.80;;;17.30;99.90;;;;;;5068134;28;20217;-76
2021/08/16 15:38:34;;;;;;;801.83;743.38;;;17.30;99.90;;;;;;5068299;28;20201;-76
2021/08/16 15:41:02;;;;;;;795.80;737.75;;;17.40;99.90;;;;;;5074439;28;20204;-76
2021/08/16 15:46:11;;;;;;;805.47;747.42;;;17.30;99.90;;;;;;5069064;28;20263;-76
2021/08/16 15:48:38;;;;;;;787.03;729.50;;;17.30;99.90;;;;;;5067820;28;20733;-76
2021/08/16 15:51:05;;;;;;;801.78;743.95;;;17.30;99.90;;;;;;5068276;28;20205;-76
2021/08/16 15:56:16;;;;;;;803.92;745.45;;;17.10;99.90;;;;;;5067572;28;20201;-76
2021/08/16 15:58:43;;;;;;;801.92;743.70;;;17.10;99.90;;;;;;5067017;28;20300;-76
2021/08/16 16:01:19;;;;;;;803.13;745.20;;;17.10;99.90;;;;;;5069070;28;20197;-76
2021/08/16 16:03:47;;;;;;;785.13;727.55;;;17.10;99.90;;;;;;5066910;28;20290;-77
2021/08/16 16:06:15;;;;;;;802.17;744.63;;;17.10;99.90;;;;;;5066410;28;20255;-77
2021/08/16 16:08:42;;;;;;;790.05;734.28;;;17.10;99.90;;;;;;5066840;28;20205;-76
2021/08/16 16:11:10;;;;;;;783.72;726.65;;;17.00;99.90;;;;;;5072798;28;20251;-77
2021/08/16 16:13:37;;;;;;;791.22;735.42;;;17.10;99.90;;;;;;5073227;28;20231;-76
2021/08/16 16:18:49;;;;;;;810.85;753.35;;;17.00;99.90;;;;;;5067325;28;20209;-77
2021/08/16 16:21:17;;;;;;;812.15;755.40;;;17.00;99.90;;;;;;5067148;28;20197;-77
2021/08/16 16:23:45;;;;;;;788.25;732.13;;;16.90;99.90;;;;;;5067256;28;20205;-77
2021/08/16 16:26:12;;;;;;;767.78;711.90;;;16.90;99.90;;;;;;5073368;28;20260;-76
2021/08/16 16:28:42;;;;;;;786.42;730.60;;;16.90;99.90;;;;;;5071094;28;20270;-76
2021/08/16 16:31:15;;;;;;;730.08;675.42;;;16.80;99.90;;;;;;5071262;28;20224;-77
2021/08/16 16:33:42;;;;;;;801.95;745.63;;;16.80;99.90;;;;;;5073951;28;20202;-76
2021/08/16 16:36:11;;;;;;;797.92;742.17;;;16.80;99.90;;;;;;5075037;28;20204;-76
2021/08/16 16:38:40;;;;;;;752.60;697.85;;;16.80;99.90;;;;;;5069802;28;20212;-77